.
WxDataArchive / Data Records for 2005-12-09
2005-12-08 December 2005 2005-12-10

Data Records for Friday, 09 December 2005

Time	Temp	Chill	HIndex	Humid	Dewpt	 Wind 	HiWind	WindDir	Rain 	Barom 
-----	----	-----	------	-----	-----	------	------	-------	-----	----- 
00:00	23.2	23.2	23.2	90	20.7	0	1	112	0.00	29.949 
00:05	23.2	23.2	23.2	90	20.7	0	2	135	0.00	29.949 
00:10	23.2	23.2	23.2	90	20.7	1	3	225	0.00	29.949 
00:15	23.3	23.3	23.3	91	21.1	1	4	270	0.00	29.957 
00:20	23.5	23.5	23.5	91	21.3	3	6	248	0.00	29.957 
00:25	23.6	18.4	23.6	90	21.1	4	11	248	0.00	29.957 
00:30	23.6	17.2	23.6	90	21.1	5	11	270	0.00	29.954 
00:35	23.6	16.2	23.6	89	20.8	6	11	270	0.00	29.954 
00:40	23.5	17.1	23.5	89	20.7	5	10	270	0.00	29.954 
00:45	23.3	15.0	23.3	89	20.5	7	16	248	0.00	29.967 
00:50	23.2	14.9	23.2	89	20.4	7	17	270	0.00	29.967 
00:55	23.0	15.5	23.0	88	20.0	6	15	270	0.00	29.967 
01:00	22.7	14.3	22.7	88	19.7	7	18	270	0.00	29.978 
01:05	22.4	13.9	22.4	88	19.4	7	18	270	0.00	29.978 
01:10	22.2	15.6	22.2	88	19.2	5	15	270	0.00	29.978 
01:15	21.9	12.5	21.9	88	18.9	8	24	270	0.00	29.987 
01:20	21.8	14.1	21.8	88	18.8	6	13	270	0.00	29.987 
01:25	21.6	13.0	21.6	87	18.3	7	16	270	0.00	29.987 
01:30	21.4	12.7	21.4	87	18.1	7	21	270	0.00	29.998 
01:35	21.4	12.7	21.4	87	18.1	7	20	270	0.00	29.998 
01:40	21.3	10.5	21.3	87	18.0	10	23	270	0.00	29.998 
01:45	21.1	12.4	21.1	87	17.8	7	15	270	0.00	30.005 
01:50	21.1	11.6	21.1	87	17.8	8	17	270	0.00	30.005 
01:55	21.0	13.1	21.0	87	17.8	6	16	270	0.00	30.005 
02:00	20.8	12.0	20.8	87	17.6	7	14	270	0.00	30.020 
02:05	20.6	11.8	20.6	87	17.4	7	14	270	0.00	30.020 
02:10	20.5	13.6	20.5	87	17.3	5	15	270	0.00	30.020 
02:15	20.2	10.5	20.2	86	16.7	8	17	248	0.00	30.037 
02:20	19.5	10.4	19.5	85	15.7	7	19	270	0.00	30.037 
02:25	19.1	10.9	19.1	85	15.3	6	17	270	0.00	30.037 
02:30	18.8	9.6	18.8	85	15.1	7	19	270	0.00	30.055 
02:35	18.3	8.2	18.3	85	14.6	8	18	270	0.00	30.055 
02:40	17.8	7.6	17.8	84	13.8	8	21	270	0.00	30.055 
02:45	17.3	6.9	17.3	84	13.3	8	18	270	0.00	30.076 
02:50	17.0	5.8	17.0	84	13.0	9	21	270	0.00	30.076 
02:55	16.7	6.2	16.7	84	12.7	8	19	270	0.00	30.076 
03:00	16.5	7.8	16.5	84	12.5	6	14	270	0.00	30.089 
03:05	16.5	7.8	16.5	81	11.7	6	13	270	0.00	30.089 
03:10	16.4	7.7	16.4	84	12.4	6	16	270	0.00	30.089 
03:15	16.1	6.3	16.1	83	11.9	7	18	270	0.00	30.115 
03:20	15.7	5.9	15.7	84	11.7	7	15	270	0.00	30.115 
03:25	15.4	4.6	15.4	84	11.4	8	18	270	0.00	30.115 
03:30	15.2	7.3	15.2	84	11.3	5	19	270	0.00	30.123 
03:35	15.2	6.2	15.2	84	11.3	6	15	270	0.00	30.123 
03:40	15.2	5.3	15.2	83	11.0	7	15	270	0.00	30.123 
03:45	14.8	3.9	14.8	82	10.3	8	19	270	0.00	30.137 
03:50	14.3	4.2	14.3	82	9.8	7	14	270	0.00	30.137 
03:55	14.1	6.1	14.1	83	9.9	5	13	270	0.00	30.137 
04:00	14.1	6.1	14.1	83	9.9	5	12	270	0.00	30.141 
04:05	14.0	2.9	14.0	83	9.8	8	18	270	0.00	30.141 
04:10	13.8	7.1	13.8	83	9.6	4	13	270	0.00	30.141 
04:15	13.8	5.7	13.8	83	9.6	5	10	270	0.00	30.157 
04:20	13.6	4.3	13.6	82	9.1	6	18	270	0.00	30.157 
04:25	13.5	6.7	13.5	82	9.0	4	12	270	0.00	30.157 
04:30	13.3	6.5	13.3	82	8.9	4	14	270	0.00	30.165 
04:35	13.1	3.7	13.1	82	8.7	6	15	270	0.00	30.165 
04:40	13.1	4.9	13.1	82	8.7	5	16	270	0.00	30.165 
04:45	13.3	4.0	13.3	82	8.9	6	14	270	0.00	30.176 
04:50	13.3	4.0	13.3	82	8.9	6	15	270	0.00	30.176 
04:55	13.3	5.1	13.3	82	8.9	5	15	270	0.00	30.176 
05:00	13.5	6.7	13.5	83	9.3	4	17	270	0.00	30.188 
05:05	13.5	4.2	13.5	83	9.3	6	16	270	0.00	30.188 
05:10	13.5	6.7	13.5	83	9.3	4	14	270	0.00	30.188 
05:15	13.3	5.1	13.3	83	9.1	5	16	270	0.00	30.202 
05:20	13.3	6.5	13.3	83	9.1	4	12	270	0.00	30.202 
05:25	13.3	6.5	13.3	83	9.1	4	12	270	0.00	30.202 
05:30	13.3	5.1	13.3	83	9.1	5	11	270	0.00	30.204 
05:35	13.5	5.3	13.5	83	9.3	5	13	270	0.00	30.204 
05:40	13.5	13.5	13.5	83	9.3	3	11	270	0.00	30.204 
05:45	13.5	5.3	13.5	83	9.3	5	13	270	0.00	30.208 
05:50	13.5	6.7	13.5	84	9.6	4	10	270	0.00	30.208 
05:55	13.5	5.3	13.5	84	9.6	5	18	270	0.00	30.208 
06:00	13.6	5.5	13.6	84	9.7	5	14	270	0.00	30.218 
06:05	13.6	5.5	13.6	84	9.7	5	11	270	0.00	30.218 
06:10	13.8	7.1	13.8	84	9.9	4	11	270	0.00	30.218 
06:15	14.0	14.0	14.0	84	10.1	3	9	270	0.00	30.230 
06:20	14.0	14.0	14.0	84	10.1	3	10	270	0.00	30.230 
06:25	14.1	14.1	14.1	84	10.2	3	7	248	0.00	30.230 
06:30	14.3	14.3	14.3	84	10.4	3	6	270	0.00	30.233 
06:35	14.4	14.4	14.4	84	10.5	3	10	270	0.00	30.233 
06:40	14.4	7.7	14.4	84	10.5	4	10	270	0.00	30.233 
06:45	14.6	8.0	14.6	84	10.7	4	13	270	0.00	30.254 
06:50	14.6	8.0	14.6	84	10.7	4	11	270	0.00	30.254 
06:55	14.8	8.2	14.8	85	11.1	4	12	270	0.00	30.254 
07:00	14.8	8.2	14.8	84	10.9	4	9	270	0.00	30.262 
07:05	14.8	8.2	14.8	84	10.9	4	9	248	0.00	30.262 
07:10	14.8	8.2	14.8	84	10.9	4	11	270	0.00	30.262 
07:15	14.8	6.9	14.8	84	10.9	5	13	248	0.00	30.277 
07:20	14.6	8.0	14.6	84	10.7	4	12	248	0.00	30.277 
07:25	14.6	8.0	14.6	84	10.7	4	13	270	0.00	30.277 
07:30	14.6	8.0	14.6	84	10.7	4	9	270	0.00	30.278 
07:35	14.6	8.0	14.6	84	10.7	4	11	270	0.00	30.278 
07:40	14.6	8.0	14.6	84	10.7	4	7	270	0.00	30.278 
07:45	14.6	6.6	14.6	84	10.7	5	11	248	0.00	30.293 
07:50	14.6	8.0	14.6	85	10.9	4	10	248	0.00	30.293 
07:55	14.8	8.2	14.8	85	11.1	4	7	248	0.00	30.293 
08:00	14.8	8.2	14.8	85	11.1	4	9	270	0.00	30.303 
08:05	14.8	8.2	14.8	85	11.1	4	9	248	0.00	30.303 
08:10	14.8	8.2	14.8	85	11.1	4	12	248	0.00	30.303 
08:15	14.9	14.9	14.9	85	11.2	3	7	270	0.00	30.309 
08:20	14.9	8.3	14.9	85	11.2	4	13	270	0.00	30.309 
08:25	14.9	8.3	14.9	85	11.2	4	9	270	0.00	30.309 
08:30	14.9	8.3	14.9	85	11.2	4	10	248	0.00	30.312 
08:35	15.1	8.6	15.1	85	11.4	4	12	270	0.00	30.312 
08:40	15.1	8.6	15.1	85	11.4	4	9	248	0.00	30.312 
08:45	15.1	8.6	15.1	85	11.4	4	12	270	0.00	30.318 
08:50	15.2	7.3	15.2	85	11.5	5	12	248	0.00	30.318 
08:55	15.2	8.7	15.2	85	11.5	4	10	248	0.00	30.318 
09:00	15.4	8.9	15.4	85	11.7	4	7	248	0.00	30.327 
09:05	15.4	8.9	15.4	85	11.7	4	9	270	0.00	30.327 
09:10	15.4	7.6	15.4	84	11.4	5	11	270	0.00	30.327 
09:15	15.4	8.9	15.4	84	11.4	4	12	248	0.00	30.340 
09:20	15.4	8.9	15.4	84	11.4	4	9	270	0.00	30.340 
09:25	15.4	8.9	15.4	84	11.4	4	10	248	0.00	30.340 
09:30	15.4	15.4	15.4	84	11.4	3	5	248	0.00	30.341 
09:35	15.4	8.9	15.4	84	11.4	4	12	248	0.00	30.341 
09:40	15.6	15.6	15.6	84	11.6	3	11	270	0.00	30.341 
09:45	15.6	15.6	15.6	85	11.9	3	11	248	0.00	30.347 
09:50	15.7	15.7	15.7	84	11.7	3	10	248	0.00	30.347 
09:55	15.9	15.9	15.9	85	12.2	2	8	248	0.00	30.347 
10:00	15.9	15.9	15.9	84	11.9	3	7	248	0.00	30.354 
10:05	16.1	9.7	16.1	84	12.1	4	7	248	0.00	30.354 
10:10	16.1	16.1	16.1	85	12.4	3	7	248	0.00	30.354 
10:15	16.1	9.7	16.1	84	12.1	4	10	270	0.00	30.360 
10:20	16.2	16.2	16.2	85	12.5	3	10	270	0.00	30.360 
10:25	16.4	16.4	16.4	85	12.7	3	7	248	0.00	30.360 
10:30	16.5	16.5	16.5	85	12.8	3	11	270	0.00	30.366 
10:35	16.7	16.7	16.7	85	13.0	2	7	248	0.00	30.366 
10:40	16.9	10.6	16.9	85	13.2	4	10	248	0.00	30.366 
10:45	17.0	10.7	17.0	85	13.3	4	10	270	0.00	30.371 
10:50	17.2	17.2	17.2	85	13.5	3	9	248	0.00	30.371 
10:55	17.2	9.7	17.2	85	13.5	5	13	248	0.00	30.371 
11:00	17.3	17.3	17.3	85	13.6	3	9	248	0.00	30.373 
11:05	17.3	11.1	17.3	85	13.6	4	9	248	0.00	30.373 
11:10	17.5	17.5	17.5	85	13.8	3	11	248	0.00	30.373 
11:15	17.5	11.3	17.5	84	13.5	4	12	248	0.00	30.374 
11:20	17.5	17.5	17.5	84	13.5	3	9	248	0.00	30.374 
11:25	17.5	11.3	17.5	85	13.8	4	8	248	0.00	30.374 
11:30	17.7	17.7	17.7	85	14.0	2	6	248	0.00	30.368 
11:35	18.0	18.0	18.0	85	14.3	2	6	248	0.00	30.368 
11:40	18.1	18.1	18.1	85	14.4	3	5	248	0.00	30.368 
11:45	18.3	18.3	18.3	84	14.3	2	6	248	0.00	30.360 
11:50	18.4	18.4	18.4	84	14.4	3	6	248	0.00	30.360 
11:55	18.4	18.4	18.4	84	14.4	3	7	248	0.00	30.360 
12:00	18.6	18.6	18.6	84	14.6	2	6	248	0.00	30.351 
12:05	18.6	18.6	18.6	84	14.6	3	5	270	0.00	30.351 
12:10	18.8	18.8	18.8	84	14.8	3	9	270	0.00	30.351 
12:15	19.1	19.1	19.1	84	15.1	2	5	270	0.00	30.352 
12:20	19.2	19.2	19.2	84	15.2	2	6	248	0.00	30.352 
12:25	19.4	19.4	19.4	84	15.4	2	7	248	0.00	30.352 
12:30	19.4	13.5	19.4	84	15.4	4	10	248	0.00	30.348 
12:35	19.5	19.5	19.5	84	15.5	3	7	248	0.00	30.348 
12:40	19.5	19.5	19.5	84	15.5	3	6	270	0.00	30.348 
12:45	19.5	19.5	19.5	84	15.5	3	7	248	0.00	30.347 
12:50	19.4	12.3	19.4	84	15.4	5	11	248	0.00	30.347 
12:55	19.4	19.4	19.4	84	15.4	3	6	248	0.00	30.347 
13:00	19.7	19.7	19.7	84	15.7	2	5	248	0.00	30.334 
13:05	19.7	19.7	19.7	84	15.7	3	5	248	0.00	30.334 
13:10	19.5	19.5	19.5	83	15.2	3	7	270	0.00	30.334 
13:15	19.5	19.5	19.5	84	15.5	3	9	248	0.00	30.329 
13:20	19.5	13.6	19.5	83	15.2	4	10	248	0.00	30.329 
13:25	19.5	19.5	19.5	83	15.2	3	9	248	0.00	30.329 
13:30	19.5	13.6	19.5	84	15.5	4	8	270	0.00	30.326 
13:35	19.5	13.6	19.5	83	15.2	4	10	248	0.00	30.326 
13:40	19.7	19.7	19.7	83	15.4	3	10	248	0.00	30.326 
13:45	19.7	19.7	19.7	83	15.4	3	9	248	0.00	30.320 
13:50	19.7	13.9	19.7	83	15.4	4	10	248	0.00	30.320 
13:55	19.9	19.9	19.9	84	15.9	3	10	248	0.00	30.320 
14:00	19.9	14.1	19.9	83	15.6	4	10	248	0.00	30.316 
14:05	20.0	20.0	20.0	83	15.7	3	6	248	0.00	30.316 
14:10	20.0	14.2	20.0	83	15.7	4	9	248	0.00	30.316 
14:15	19.9	14.1	19.9	83	15.6	4	12	248	0.00	30.323 
14:20	20.0	14.2	20.0	83	15.7	4	10	248	0.00	30.323 
14:25	20.0	14.2	20.0	84	16.0	4	12	248	0.00	30.323 
14:30	20.0	14.2	20.0	83	15.7	4	9	270	0.00	30.324 
14:35	20.2	20.2	20.2	84	16.2	3	6	248	0.00	30.324 
14:40	20.2	20.2	20.2	86	16.7	3	10	248	0.00	30.324 
14:45	20.2	20.2	20.2	83	15.9	3	7	248	0.00	30.316 
14:50	20.3	20.3	20.3	84	16.3	3	12	248	0.00	30.316 
14:55	20.3	20.3	20.3	84	16.3	3	10	248	0.00	30.316 
15:00	20.3	20.3	20.3	84	16.3	2	6	248	0.00	30.311 
15:05	20.5	20.5	20.5	83	16.2	3	8	248	0.00	30.311 
15:10	20.5	20.5	20.5	84	16.4	3	6	248	0.00	30.311 
15:15	20.6	20.6	20.6	84	16.5	2	6	248	0.00	30.310 
15:20	20.8	20.8	20.8	83	16.5	2	6	248	0.00	30.310 
15:25	21.0	21.0	21.0	84	16.9	2	7	248	0.00	30.310 
15:30	21.0	21.0	21.0	84	16.9	2	6	248	0.00	30.307 
15:35	21.1	21.1	21.1	83	16.8	2	6	248	0.00	30.307 
15:40	21.1	21.1	21.1	83	16.8	2	7	248	0.00	30.307 
15:45	21.1	21.1	21.1	83	16.8	2	5	248	0.00	30.310 
15:50	21.1	21.1	21.1	83	16.8	2	5	248	0.00	30.310 
15:55	21.1	21.1	21.1	83	16.8	2	5	248	0.00	30.310 
16:00	21.1	21.1	21.1	84	17.0	1	3	248	0.00	30.309 
16:05	21.1	21.1	21.1	83	16.8	3	5	248	0.00	30.309 
16:10	21.0	21.0	21.0	83	16.7	3	7	248	0.00	30.309 
16:15	20.8	20.8	20.8	83	16.5	2	5	248	0.00	30.311 
16:20	20.6	20.6	20.6	83	16.3	2	6	248	0.00	30.311 
16:25	20.6	20.6	20.6	83	16.3	2	6	248	0.00	30.311 
16:30	20.3	14.6	20.3	82	15.7	4	13	248	0.00	30.310 
16:35	20.0	14.2	20.0	83	15.7	4	12	248	0.00	30.310 
16:40	19.7	19.7	19.7	83	15.4	2	7	248	0.00	30.310 
16:45	19.5	19.5	19.5	83	15.2	3	9	248	0.00	30.309 
16:50	19.4	19.4	19.4	83	15.1	3	7	248	0.00	30.309 
16:55	19.2	19.2	19.2	84	15.2	3	10	248	0.00	30.309 
17:00	19.2	13.3	19.2	84	15.2	4	9	248	0.00	30.302 
17:05	19.1	19.1	19.1	84	15.1	2	6	248	0.00	30.302 
17:10	18.9	18.9	18.9	84	14.9	2	6	248	0.00	30.302 
17:15	18.8	18.8	18.8	84	14.8	3	6	248	0.00	30.302 
17:20	18.8	18.8	18.8	84	14.8	2	4	248	0.00	30.302 
17:25	18.6	18.6	18.6	84	14.6	2	5	248	0.00	30.302 
17:30	18.4	18.4	18.4	84	14.4	2	11	248	0.00	30.305 
17:35	18.4	18.4	18.4	84	14.4	3	9	248	0.00	30.305 
17:40	18.4	12.4	18.4	84	14.4	4	10	270	0.00	30.305 
17:45	18.4	18.4	18.4	84	14.4	3	7	248	0.00	30.303 
17:50	18.4	12.4	18.4	84	14.4	4	11	270	0.00	30.303 
17:55	18.4	12.4	18.4	84	14.4	4	12	248	0.00	30.303 
18:00	18.4	10.0	18.4	84	14.4	6	16	248	0.00	30.304 
18:05	18.4	18.4	18.4	85	14.7	3	10	270	0.00	30.304 
18:10	18.4	12.4	18.4	85	14.7	4	12	270	0.00	30.304 
18:15	18.4	18.4	18.4	85	14.7	3	10	248	0.00	30.304 
18:20	18.4	12.4	18.4	86	14.9	4	9	248	0.00	30.304 
18:25	18.6	18.6	18.6	86	15.1	3	8	248	0.00	30.304 
18:30	18.6	18.6	18.6	86	15.1	3	10	248	0.00	30.302 
18:35	18.6	18.6	18.6	86	15.1	3	10	248	0.00	30.302 
18:40	18.6	12.6	18.6	86	15.1	4	10	248	0.00	30.302 
18:45	18.8	18.8	18.8	86	15.3	2	9	248	0.00	30.301 
18:50	18.8	18.8	18.8	86	15.3	3	9	248	0.00	30.301 
18:55	18.8	11.6	18.8	86	15.3	5	13	248	0.00	30.301 
19:00	18.8	11.6	18.8	86	15.3	5	12	270	0.00	30.295 
19:05	18.8	10.5	18.8	87	15.6	6	15	270	0.00	30.295 
19:10	18.8	12.8	18.8	87	15.6	4	8	248	0.00	30.295 
19:15	18.8	18.8	18.8	87	15.6	2	10	248	0.00	30.279 
19:20	18.9	11.7	18.9	87	15.7	5	13	270	0.00	30.279 
19:25	18.9	18.9	18.9	87	15.7	3	6	248	0.00	30.279 
19:30	19.1	19.1	19.1	87	15.9	3	6	248	0.00	30.278 
19:35	19.1	19.1	19.1	87	15.9	3	6	248	0.00	30.278 
19:40	19.1	19.1	19.1	86	15.6	3	6	248	0.00	30.278 
19:45	19.1	11.9	19.1	86	15.6	5	11	248	0.00	30.282 
19:50	19.1	11.9	19.1	86	15.6	5	13	248	0.00	30.282 
19:55	18.9	9.7	18.9	86	15.4	7	15	248	0.00	30.282 
20:00	19.1	19.1	19.1	86	15.6	3	6	248	0.00	30.289 
20:05	18.9	12.9	18.9	86	15.4	4	9	248	0.00	30.289 
20:10	18.9	18.9	18.9	86	15.4	3	7	248	0.00	30.289 
20:15	18.9	12.9	18.9	86	15.4	4	10	270	0.00	30.283 
20:20	18.9	12.9	18.9	86	15.4	4	10	270	0.00	30.283 
20:25	19.1	11.9	19.1	86	15.6	5	10	248	0.00	30.283 
20:30	19.1	11.9	19.1	86	15.6	5	13	248	0.00	30.279 
20:35	19.1	13.2	19.1	86	15.6	4	11	270	0.00	30.279 
20:40	19.1	19.1	19.1	86	15.6	3	7	248	0.00	30.279 
20:45	19.1	13.2	19.1	86	15.6	4	11	270	0.00	30.275 
20:50	19.1	13.2	19.1	86	15.6	4	9	248	0.00	30.275 
20:55	19.1	13.2	19.1	86	15.6	4	11	248	0.00	30.275 
21:00	19.2	13.3	19.2	86	15.7	4	11	248	0.00	30.268 
21:05	19.2	12.0	19.2	85	15.4	5	11	270	0.00	30.268 
21:10	19.2	13.3	19.2	85	15.4	4	10	248	0.00	30.268 
21:15	19.2	13.3	19.2	85	15.4	4	11	270	0.00	30.266 
21:20	19.2	13.3	19.2	85	15.4	4	11	248	0.00	30.266 
21:25	19.2	12.0	19.2	85	15.4	5	14	248	0.00	30.266 
21:30	19.2	13.3	19.2	85	15.4	4	10	248	0.00	30.263 
21:35	19.2	12.0	19.2	85	15.4	5	14	248	0.00	30.263 
21:40	19.2	13.3	19.2	85	15.4	4	10	248	0.00	30.263 
21:45	19.2	19.2	19.2	85	15.4	3	9	248	0.00	30.253 
21:50	19.2	19.2	19.2	86	15.7	3	6	248	0.00	30.253 
21:55	19.2	13.3	19.2	86	15.7	4	8	248	0.00	30.253 
22:00	19.2	19.2	19.2	86	15.7	3	9	248	0.00	30.241 
22:05	19.2	19.2	19.2	86	15.7	2	6	248	0.00	30.241 
22:10	19.2	19.2	19.2	86	15.7	2	6	248	0.00	30.241 
22:15	19.4	19.4	19.4	86	15.9	3	6	248	0.00	30.234 
22:20	19.4	19.4	19.4	86	15.9	3	9	248	0.00	30.234 
22:25	19.4	19.4	19.4	86	15.9	3	11	248	0.00	30.234 
22:30	19.4	19.4	19.4	86	15.9	3	7	248	0.00	30.230 
22:35	19.4	12.3	19.4	86	15.9	5	12	248	0.00	30.230 
22:40	19.5	13.6	19.5	86	16.0	4	10	248	0.00	30.230 
22:45	19.5	19.5	19.5	86	16.0	3	7	248	0.00	30.230 
22:50	19.5	19.5	19.5	86	16.0	3	7	270	0.00	30.230 
22:55	19.5	13.6	19.5	86	16.0	4	10	248	0.00	30.230 
23:00	19.4	19.4	19.4	86	15.9	2	5	248	0.00	30.223 
23:05	19.4	19.4	19.4	85	15.6	3	6	248	0.00	30.223 
23:10	19.2	13.3	19.2	85	15.4	4	7	248	0.00	30.223 
23:15	19.2	19.2	19.2	85	15.4	3	11	248	0.00	30.214 
23:20	19.1	13.2	19.1	85	15.3	4	13	248	0.00	30.214 
23:25	19.1	13.2	19.1	85	15.3	4	10	248	0.00	30.214 
23:30	18.9	12.9	18.9	85	15.2	4	12	248	0.00	30.210 
23:35	18.9	18.9	18.9	85	15.2	3	11	248	0.00	30.210 
23:40	18.8	12.8	18.8	85	15.1	4	14	248	0.00	30.210 
23:45	18.8	18.8	18.8	85	15.1	3	11	248	0.00	30.200 
23:50	18.6	18.6	18.6	85	14.9	3	8	248	0.00	30.200 
23:55	18.6	18.6	18.6	84	14.6	3	10	248	0.00	30.200 

CoCoRaHS
IN-AL-39
A2 Web Hosting
Creative Commons License
GoDaddy
Look for:

loaded 2017-12-12 15:12:28 • last modified 2010-11-18 10:43:29
Privacy PolicyDisclaimer
• wx.awcolley.com is powered by PmWiki v.2002016 •
• all content (unless otherwise noted) © 2017 A W Colley